Time;durP1;ratioP1;P1;durP2;ratioP2;P2;SDS_P1;SDS_P2;PMS_P1;PMS_P2;Temp;Humidity;BMP_temperature;BMP_pressure;BME280_temperature;BME280_humidity;BME280_pressure;Samples;Min_cycle;Max_cycle;Signal;HPM_P1;HPM_P2
2022/04/28 00:04:47;;;;;;;5.47;4.28;;;13.50;76.10;;;;;;10149105;28;20346;-57
2022/04/28 00:09:38;;;;;;;4.70;3.78;;;13.40;76.70;;;;;;10166141;28;20039;-57
2022/04/28 00:14:30;;;;;;;6.65;4.00;;;13.40;76.70;;;;;;10161412;28;20024;-59
2022/04/28 00:19:21;;;;;;;6.60;4.78;;;13.40;77.30;;;;;;10167084;28;20101;-59
2022/04/28 00:24:12;;;;;;;5.20;3.70;;;13.30;77.70;;;;;;10152047;28;20432;-61
2022/04/28 00:29:02;;;;;;;5.82;3.63;;;13.30;78.10;;;;;;10150722;28;20047;-59
2022/04/28 00:33:55;;;;;;;6.70;3.75;;;13.20;78.40;;;;;;10149309;28;20483;-63
2022/04/28 00:38:46;;;;;;;5.53;3.55;;;12.90;79.50;;;;;;10159816;28;20032;-66
2022/04/28 00:43:51;;;;;;;6.97;4.25;;;12.80;80.00;;;;;;10158929;28;20044;-59
2022/04/28 00:53:52;;;;;;;4.97;4.15;;;12.70;80.80;;;;;;10151989;28;20591;-61
2022/04/28 00:58:43;;;;;;;6.30;3.75;;;12.60;81.40;;;;;;10154199;28;20043;-59
2022/04/28 01:03:34;;;;;;;10.10;4.25;;;12.40;82.10;;;;;;10142370;28;20071;-56
2022/04/28 01:08:26;;;;;;;9.65;4.68;;;12.40;82.40;;;;;;10153107;28;20603;-60
2022/04/28 01:13:17;;;;;;;5.80;4.00;;;12.40;82.10;;;;;;10154309;28;20117;-57
2022/04/28 01:18:08;;;;;;;7.25;4.20;;;12.40;82.30;;;;;;10158305;28;20715;-58
2022/04/28 01:22:59;;;;;;;6.65;4.03;;;12.50;82.40;;;;;;10146116;28;20480;-57
2022/04/28 01:27:50;;;;;;;4.50;3.33;;;12.30;82.90;;;;;;10154396;28;20036;-57
2022/04/28 01:32:42;;;;;;;6.35;4.32;;;12.30;83.10;;;;;;10147243;28;20418;-57
2022/04/28 01:37:35;;;;;;;5.03;3.55;;;12.20;83.50;;;;;;10159271;28;20029;-58
2022/04/28 01:42:26;;;;;;;5.32;3.70;;;12.20;83.70;;;;;;10154121;28;20387;-58
2022/04/28 01:47:18;;;;;;;5.88;4.30;;;12.10;84.40;;;;;;10137679;28;20016;-58
2022/04/28 01:57:18;;;;;;;6.30;4.10;;;11.90;84.70;;;;;;10141239;28;20055;-58
2022/04/28 02:02:09;;;;;;;5.97;3.67;;;11.80;85.50;;;;;;10145775;28;20529;-57
2022/04/28 02:07:00;;;;;;;5.63;3.97;;;11.80;85.50;;;;;;10147081;28;20028;-59
2022/04/28 02:11:50;;;;;;;5.70;4.00;;;11.70;85.60;;;;;;10153966;28;20106;-58
2022/04/28 02:16:41;;;;;;;7.38;4.15;;;11.70;86.20;;;;;;10143950;28;20420;-67
2022/04/28 02:21:32;;;;;;;8.57;4.53;;;11.50;86.50;;;;;;10159020;28;20166;-67
2022/04/28 02:26:23;;;;;;;5.43;4.22;;;11.60;86.50;;;;;;10136410;28;20051;-59
2022/04/28 02:31:14;;;;;;;6.07;3.95;;;11.60;86.20;;;;;;10145534;28;20056;-59
2022/04/28 02:36:05;;;;;;;6.03;3.92;;;11.60;86.50;;;;;;10146461;28;20497;-58
2022/04/28 02:40:56;;;;;;;9.15;4.80;;;11.40;87.00;;;;;;10152629;28;20379;-61
2022/04/28 02:45:49;;;;;;;6.43;4.13;;;11.40;86.80;;;;;;10143778;28;20247;-58
2022/04/28 02:50:40;;;;;;;6.43;3.88;;;11.20;87.70;;;;;;10153472;28;20048;-58
2022/04/28 02:55:30;;;;;;;4.85;3.97;;;11.20;88.20;;;;;;10150842;28;20024;-58
2022/04/28 03:00:21;;;;;;;5.15;4.10;;;11.10;88.60;;;;;;10156289;28;20097;-66
2022/04/28 03:05:12;;;;;;;6.40;3.72;;;11.10;88.40;;;;;;10152917;28;20084;-58
2022/04/28 03:15:13;;;;;;;9.02;4.20;;;11.20;88.00;;;;;;10160524;28;20215;-59
2022/04/28 03:20:05;;;;;;;6.43;4.03;;;11.20;88.30;;;;;;10168025;28;20048;-59
2022/04/28 03:24:56;;;;;;;6.28;3.97;;;11.10;89.10;;;;;;10156133;28;20051;-58
2022/04/28 03:29:47;;;;;;;7.40;3.92;;;11.00;88.70;;;;;;10162398;28;20025;-60
2022/04/28 03:34:38;;;;;;;6.25;4.28;;;11.00;88.80;;;;;;10138787;28;20028;-57
2022/04/28 03:39:30;;;;;;;5.53;3.92;;;11.00;88.70;;;;;;10158983;28;20032;-64
2022/04/28 03:44:20;;;;;;;6.63;4.47;;;11.00;88.70;;;;;;10146716;28;20044;-59
2022/04/28 03:49:12;;;;;;;6.75;4.40;;;11.00;89.10;;;;;;10149504;28;20092;-59
2022/04/28 03:54:03;;;;;;;7.28;4.38;;;10.90;89.00;;;;;;10150926;28;20624;-60
2022/04/28 03:58:54;;;;;;;8.50;4.50;;;10.80;89.20;;;;;;10151116;28;20035;-59
2022/04/28 04:03:44;;;;;;;7.95;4.35;;;10.80;89.20;;;;;;10151050;28;20406;-55
2022/04/28 04:08:35;;;;;;;7.57;4.63;;;10.80;89.40;;;;;;10147954;28;20027;-57
2022/04/28 04:13:27;;;;;;;5.78;4.13;;;10.70;89.70;;;;;;10162202;28;20033;-62
2022/04/28 04:18:18;;;;;;;5.03;3.97;;;10.70;89.80;;;;;;10155038;28;20016;-58
2022/04/28 04:23:09;;;;;;;7.22;3.95;;;10.50;90.30;;;;;;10155556;28;20040;-60
2022/04/28 04:28:00;;;;;;;8.20;4.97;;;10.40;90.30;;;;;;10160543;28;20066;-58
2022/04/28 04:32:50;;;;;;;6.35;4.18;;;10.40;90.40;;;;;;10144332;28;20172;-58
2022/04/28 04:37:41;;;;;;;7.55;4.40;;;10.30;90.40;;;;;;10153391;28;20138;-63
2022/04/28 04:42:32;;;;;;;6.50;4.07;;;10.20;90.70;;;;;;10148556;28;20123;-58
2022/04/28 04:47:23;;;;;;;11.30;4.80;;;10.30;90.50;;;;;;10163344;28;20717;-58
2022/04/28 04:52:14;;;;;;;6.47;4.53;;;10.40;90.40;;;;;;10153204;28;20123;-58
2022/04/28 04:57:04;;;;;;;6.80;4.18;;;10.30;90.50;;;;;;10141797;28;20548;-58
2022/04/28 05:01:55;;;;;;;9.10;4.38;;;10.40;90.50;;;;;;10143477;28;20044;-58
2022/04/28 05:06:46;;;;;;;7.65;4.25;;;10.50;90.40;;;;;;10150260;28;20074;-58
2022/04/28 05:11:40;;;;;;;9.05;5.32;;;10.40;90.50;;;;;;10168874;28;20032;-66
2022/04/28 05:16:30;;;;;;;6.85;4.43;;;10.40;90.70;;;;;;10159978;28;20063;-57
2022/04/28 05:21:21;;;;;;;7.47;4.65;;;10.30;90.90;;;;;;10146296;28;20076;-59
2022/04/28 05:26:12;;;;;;;6.45;4.22;;;10.30;90.90;;;;;;10152637;28;20194;-61
2022/04/28 05:31:03;;;;;;;7.25;4.32;;;10.40;90.80;;;;;;10150333;28;20043;-58
2022/04/28 05:35:54;;;;;;;8.93;4.35;;;10.40;90.90;;;;;;10160469;28;20032;-63
2022/04/28 05:40:45;;;;;;;7.03;4.63;;;10.50;90.70;;;;;;10146152;28;20036;-61
2022/04/28 05:45:41;;;;;;;7.53;4.35;;;10.50;90.90;;;;;;10165046;28;20032;-59
2022/04/28 05:50:33;;;;;;;6.68;4.20;;;10.50;91.10;;;;;;10158575;28;20052;-58
2022/04/28 05:55:24;;;;;;;6.78;4.70;;;10.40;91.20;;;;;;10156769;28;20513;-58
2022/04/28 06:00:15;;;;;;;7.82;5.28;;;10.50;91.00;;;;;;10160928;28;20044;-60
2022/04/28 06:05:06;;;;;;;7.35;4.88;;;10.60;91.10;;;;;;10150821;28;20080;-61
2022/04/28 06:09:57;;;;;;;6.45;4.75;;;10.70;91.30;;;;;;10161435;28;20120;-59
2022/04/28 06:14:48;;;;;;;6.93;4.13;;;10.70;91.00;;;;;;10162284;28;20401;-59
2022/04/28 06:19:38;;;;;;;7.32;4.68;;;10.80;91.00;;;;;;10155832;28;20016;-58
2022/04/28 06:24:29;;;;;;;9.02;4.93;;;10.80;90.90;;;;;;10158018;28;20051;-57
2022/04/28 06:29:20;;;;;;;7.22;4.63;;;11.00;90.90;;;;;;10160074;28;20127;-61
2022/04/28 06:34:11;;;;;;;7.82;4.70;;;11.20;90.70;;;;;;10155934;28;20028;-62
2022/04/28 06:39:02;;;;;;;5.18;3.80;;;11.30;90.70;;;;;;10169459;28;20031;-66
2022/04/28 06:43:53;;;;;;;6.50;4.55;;;11.40;90.60;;;;;;10165314;28;20039;-60
2022/04/28 06:48:43;;;;;;;8.15;5.28;;;11.60;90.50;;;;;;10157598;28;20051;-58
2022/04/28 06:53:34;;;;;;;6.28;4.07;;;11.70;90.40;;;;;;10164319;28;20097;-59
2022/04/28 06:58:27;;;;;;;7.35;4.47;;;11.90;90.40;;;;;;10141965;28;20028;-61
2022/04/28 07:03:18;;;;;;;5.63;3.88;;;11.90;90.30;;;;;;10150256;28;20040;-60
2022/04/28 07:08:09;;;;;;;7.28;4.28;;;12.00;90.30;;;;;;10162805;28;20072;-60
2022/04/28 07:13:00;;;;;;;6.43;3.90;;;12.10;90.30;;;;;;10159785;28;20028;-66
2022/04/28 07:17:51;;;;;;;7.90;4.45;;;12.20;90.10;;;;;;10166906;28;20027;-66
2022/04/28 07:22:41;;;;;;;6.65;5.05;;;12.30;90.10;;;;;;10160749;28;20036;-59
2022/04/28 07:27:32;;;;;;;7.45;5.07;;;12.60;89.70;;;;;;10153525;28;20160;-57
2022/04/28 07:32:23;;;;;;;5.82;4.30;;;12.70;89.60;;;;;;10149984;28;20063;-62
2022/04/28 07:37:14;;;;;;;6.32;4.40;;;12.90;89.30;;;;;;10154082;28;20025;-61
2022/04/28 07:42:07;;;;;;;10.43;4.55;;;12.90;89.40;;;;;;10157234;28;20130;-68
2022/04/28 07:46:58;;;;;;;7.22;4.90;;;13.00;89.40;;;;;;10170363;28;20016;-62
2022/04/28 07:51:48;;;;;;;7.03;4.50;;;13.10;89.20;;;;;;10163241;28;20028;-64
2022/04/28 07:56:40;;;;;;;4.55;3.65;;;13.30;89.10;;;;;;10154276;28;20085;-66
2022/04/28 08:01:32;;;;;;;6.97;4.25;;;13.40;88.80;;;;;;10153139;28;20032;-65
2022/04/28 08:06:23;;;;;;;7.07;4.70;;;13.60;88.40;;;;;;10161385;28;20743;-66
2022/04/28 08:11:16;;;;;;;5.32;3.80;;;13.60;88.40;;;;;;10159189;28;20280;-65
2022/04/28 08:16:08;;;;;;;5.55;4.05;;;13.80;88.20;;;;;;10171076;28;20050;-59
2022/04/28 08:21:01;;;;;;;7.60;4.38;;;14.00;87.80;;;;;;10153353;28;20032;-62
2022/04/28 08:25:52;;;;;;;7.40;3.75;;;14.10;87.60;;;;;;10154197;28;20375;-66
2022/04/28 08:30:43;;;;;;;4.57;3.55;;;14.20;87.30;;;;;;10169104;28;20028;-61
2022/04/28 08:35:34;;;;;;;6.30;3.72;;;14.40;86.80;;;;;;10162232;28;20028;-65
2022/04/28 08:40:25;;;;;;;4.85;3.20;;;14.60;86.40;;;;;;10166321;28;20437;-64
2022/04/28 08:45:26;;;;;;;6.47;3.15;;;14.70;85.80;;;;;;10150930;28;20345;-65
2022/04/28 08:50:20;;;;;;;4.53;2.83;;;14.80;85.60;;;;;;10163216;28;20028;-66
2022/04/28 08:55:12;;;;;;;5.00;3.03;;;14.90;85.20;;;;;;10151911;28;20024;-64
2022/04/28 09:00:04;;;;;;;5.50;3.42;;;15.20;84.70;;;;;;10140747;28;20131;-61
2022/04/28 09:05:02;;;;;;;4.85;2.85;;;15.30;84.10;;;;;;10157102;28;20169;-66
2022/04/28 09:09:53;;;;;;;3.25;2.83;;;15.40;83.20;;;;;;10148900;28;20028;-63
2022/04/28 09:14:44;;;;;;;3.00;2.60;;;15.40;83.40;;;;;;10155023;28;20393;-60
2022/04/28 09:19:38;;;;;;;4.20;2.58;;;15.60;83.10;;;;;;10163136;28;20042;-64
2022/04/28 09:24:30;;;;;;;4.22;3.35;;;16.00;82.10;;;;;;10161036;28;20105;-60
2022/04/28 09:29:22;;;;;;;4.38;2.05;;;16.20;81.70;;;;;;10149592;28;20111;-60
2022/04/28 09:34:18;;;;;;;3.15;2.47;;;16.30;80.00;;;;;;10159132;28;20032;-60
2022/04/28 09:39:12;;;;;;;;;;;16.40;78.40;;;;;;10157153;28;20146;-56
2022/04/28 09:44:03;;;;;;;2.72;2.15;;;16.40;77.30;;;;;;10164927;28;20153;-61
2022/04/28 09:48:54;;;;;;;3.40;2.50;;;16.60;77.70;;;;;;10150354;28;20021;-59
2022/04/28 09:53:47;;;;;;;3.90;2.33;;;16.70;77.00;;;;;;10151618;28;20111;-59
2022/04/28 09:58:38;;;;;;;5.53;2.88;;;16.80;76.50;;;;;;10167506;28;20413;-60
2022/04/28 10:03:33;;;;;;;4.00;2.97;;;16.90;76.50;;;;;;10148860;28;20037;-63
2022/04/28 10:08:25;;;;;;;5.77;2.27;;;16.90;75.30;;;;;;10158577;28;20379;-59
2022/04/28 10:13:16;;;;;;;2.75;2.15;;;17.00;74.80;;;;;;10163942;28;20460;-59
2022/04/28 10:18:11;;;;;;;2.80;1.88;;;17.20;74.30;;;;;;10158463;28;20397;-65
2022/04/28 10:23:05;;;;;;;3.58;2.53;;;17.20;73.50;;;;;;10168582;28;20119;-64
2022/04/28 10:33:08;;;;;;;4.80;2.05;;;17.60;72.80;;;;;;10157674;28;20038;-60
2022/04/28 10:38:26;;;;;;;4.13;2.78;;;17.60;72.40;;;;;;10149607;28;20040;-60
2022/04/28 10:43:26;;;;;;;10.43;3.00;;;17.70;70.50;;;;;;10158948;28;20094;-60
2022/04/28 10:48:31;;;;;;;4.53;2.35;;;17.70;71.80;;;;;;10160235;28;20071;-63
2022/04/28 10:53:22;;;;;;;4.70;2.55;;;17.70;70.70;;;;;;10164076;28;20024;-62
2022/04/28 10:58:19;;;;;;;3.47;2.65;;;17.80;70.00;;;;;;10168710;28;20032;-61
2022/04/28 11:03:10;;;;;;;4.88;2.22;;;18.00;68.50;;;;;;10152219;28;20410;-63
2022/04/28 11:08:01;;;;;;;2.53;2.00;;;17.90;69.00;;;;;;10159206;28;20542;-60
2022/04/28 11:12:53;;;;;;;1.70;1.35;;;18.00;68.60;;;;;;10150838;28;20406;-61
2022/04/28 11:17:44;;;;;;;2.42;1.65;;;18.30;67.70;;;;;;10153267;28;20044;-59
2022/04/28 11:22:35;;;;;;;2.35;1.80;;;18.40;66.20;;;;;;10164636;28;20040;-60
2022/04/28 11:27:27;;;;;;;2.70;1.67;;;18.60;65.20;;;;;;10153996;28;20584;-58
2022/04/28 11:32:18;;;;;;;2.08;1.58;;;18.80;64.40;;;;;;10151411;28;20020;-60
2022/04/28 11:37:17;;;;;;;4.20;1.52;;;18.80;64.00;;;;;;10159954;28;20021;-62
2022/04/28 11:42:09;;;;;;;9.63;2.17;;;18.90;62.70;;;;;;10158613;28;20541;-62
2022/04/28 11:47:01;;;;;;;3.85;1.65;;;18.80;62.40;;;;;;10155251;28;20020;-69
2022/04/28 11:51:52;;;;;;;2.72;1.60;;;19.00;61.70;;;;;;10164679;28;20050;-60
2022/04/28 11:56:43;;;;;;;2.95;1.95;;;19.20;60.80;;;;;;10154373;28;20568;-64
2022/04/28 12:01:35;;;;;;;5.13;1.88;;;19.10;59.90;;;;;;10136728;28;20036;-65
2022/04/28 12:06:27;;;;;;;3.38;1.50;;;19.10;59.60;;;;;;10160027;28;20051;-66
2022/04/28 12:21:38;;;;;;;3.67;1.98;;;20.00;57.80;;;;;;10142495;28;20161;-64
2022/04/28 12:26:35;;;;;;;2.78;1.92;;;20.40;58.00;;;;;;10156906;28;20082;-69
2022/04/28 12:31:28;;;;;;;1.45;1.35;;;20.80;57.70;;;;;;10140579;28;20516;-64
2022/04/28 12:36:19;;;;;;;3.00;1.92;;;21.10;58.20;;;;;;10121102;28;20016;-65
2022/04/28 12:41:18;;;;;;;2.92;1.85;;;21.70;58.20;;;;;;10159873;28;20048;-65
2022/04/28 12:46:10;;;;;;;1.85;1.60;;;22.20;57.90;;;;;;10159728;28;20020;-63
2022/04/28 12:51:18;;;;;;;2.15;1.95;;;22.70;58.50;;;;;;10152107;28;20020;-66
2022/04/28 12:56:12;;;;;;;1.95;1.75;;;23.30;56.20;;;;;;10160989;28;20144;-64
2022/04/28 13:01:02;;;;;;;1.55;1.23;;;23.60;57.40;;;;;;10148414;28;20123;-60
2022/04/28 13:05:53;;;;;;;3.50;1.92;;;23.90;55.80;;;;;;10147484;28;20040;-60
2022/04/28 13:10:44;;;;;;;3.10;2.30;;;24.70;52.50;;;;;;10151235;28;20043;-60
2022/04/28 13:15:35;;;;;;;2.17;1.70;;;26.20;50.10;;;;;;10149711;28;20037;-61
2022/04/28 13:20:25;;;;;;;1.67;1.40;;;26.60;47.20;;;;;;10144184;28;20436;-66
2022/04/28 13:25:16;;;;;;;2.70;1.75;;;27.60;45.40;;;;;;10159099;28;20416;-61
2022/04/28 13:30:07;;;;;;;2.33;1.90;;;28.50;43.90;;;;;;10140631;28;20461;-60
2022/04/28 13:34:58;;;;;;;2.38;1.50;;;29.60;42.50;;;;;;10146276;28;20024;-60
2022/04/28 13:39:49;;;;;;;2.10;1.73;;;30.60;41.00;;;;;;10153365;28;20495;-60
2022/04/28 13:44:40;;;;;;;3.40;1.90;;;30.60;39.60;;;;;;10143976;28;20058;-61
2022/04/28 13:49:31;;;;;;;2.47;1.70;;;30.20;38.50;;;;;;10137715;28;20029;-67
2022/04/28 13:54:22;;;;;;;2.73;2.40;;;31.10;38.10;;;;;;10143649;28;20101;-60
2022/04/28 13:59:13;;;;;;;5.63;3.37;;;31.30;37.30;;;;;;10162787;28;20019;-63
2022/04/28 14:04:03;;;;;;;5.07;2.43;;;31.00;36.70;;;;;;10166855;28;20044;-60
2022/04/28 14:08:54;;;;;;;2.23;1.93;;;30.90;36.30;;;;;;10163932;28;20048;-62
2022/04/28 14:13:46;;;;;;;1.70;1.60;;;31.30;36.30;;;;;;10142202;28;20029;-62
2022/04/28 14:18:37;;;;;;;2.30;2.10;;;30.50;35.50;;;;;;10147270;28;20115;-63
2022/04/28 14:23:29;;;;;;;2.33;2.10;;;30.50;35.30;;;;;;10155602;28;20044;-62
2022/04/28 14:28:22;;;;;;;3.28;1.83;;;30.20;35.50;;;;;;10156777;28;20046;-61
2022/04/28 14:33:13;;;;;;;2.25;1.95;;;29.90;35.30;;;;;;10139108;28;20072;-63
2022/04/28 14:38:04;;;;;;;2.15;1.95;;;30.30;35.00;;;;;;10158360;28;20031;-61
2022/04/28 14:42:56;;;;;;;4.93;2.17;;;30.40;34.90;;;;;;10154011;28;20070;-63
2022/04/28 14:47:47;;;;;;;2.38;1.85;;;30.00;34.40;;;;;;10154178;28;20085;-60
2022/04/28 14:52:38;;;;;;;4.80;2.00;;;29.50;34.70;;;;;;10164503;28;20449;-64
2022/04/28 14:57:40;;;;;;;3.27;2.13;;;29.70;34.50;;;;;;10170244;28;20116;-61
2022/04/28 15:02:31;;;;;;;5.00;3.25;;;30.20;34.20;;;;;;10156016;28;20548;-62
2022/04/28 15:07:25;;;;;;;2.83;2.03;;;29.40;33.50;;;;;;10165030;28;20020;-62
2022/04/28 15:12:16;;;;;;;1.75;1.65;;;28.80;33.40;;;;;;10168278;28;20591;-63
2022/04/28 15:17:11;;;;;;;4.70;2.38;;;28.60;33.10;;;;;;10160743;28;20038;-67
2022/04/28 15:22:03;;;;;;;2.78;2.55;;;29.80;32.90;;;;;;10166495;28;20036;-61
2022/04/28 15:26:54;;;;;;;2.60;1.75;;;29.90;32.60;;;;;;10139795;28;20603;-59
2022/04/28 15:31:45;;;;;;;3.60;1.88;;;29.90;32.70;;;;;;10165786;28;20161;-59
2022/04/28 15:36:37;;;;;;;2.58;2.00;;;29.90;32.10;;;;;;10166340;28;20040;-60
2022/04/28 15:41:32;;;;;;;3.10;2.30;;;29.90;31.90;;;;;;10156231;28;20036;-61
2022/04/28 15:46:26;;;;;;;2.55;2.00;;;29.50;31.50;;;;;;10157561;28;20032;-63
2022/04/28 15:51:16;;;;;;;3.08;2.70;;;29.40;31.20;;;;;;10159550;28;20029;-61
2022/04/28 15:56:07;;;;;;;4.57;2.40;;;30.00;31.00;;;;;;10167825;28;20017;-60
2022/04/28 16:00:58;;;;;;;2.95;2.03;;;31.10;30.30;;;;;;10168984;28;20032;-60
2022/04/28 16:05:48;;;;;;;3.17;2.30;;;31.00;30.10;;;;;;10143162;28;20031;-60
2022/04/28 16:10:40;;;;;;;2.58;2.38;;;32.00;29.90;;;;;;10167143;28;20016;-61
2022/04/28 16:15:30;;;;;;;5.88;2.17;;;32.70;29.30;;;;;;10166477;28;20036;-62
2022/04/28 16:20:21;;;;;;;3.22;2.35;;;33.10;29.50;;;;;;10154263;28;20028;-61
2022/04/28 16:25:12;;;;;;;4.32;2.22;;;33.30;29.10;;;;;;10168962;28;20534;-60
2022/04/28 16:30:05;;;;;;;4.35;2.30;;;33.00;28.90;;;;;;10170415;28;20132;-59
2022/04/28 16:34:55;;;;;;;3.15;1.98;;;33.20;28.70;;;;;;10165986;28;20031;-60
2022/04/28 16:39:46;;;;;;;2.70;2.08;;;33.00;28.60;;;;;;10171592;28;20032;-58
2022/04/28 16:44:37;;;;;;;3.15;1.85;;;33.00;28.60;;;;;;10166519;28;20035;-58
2022/04/28 16:49:28;;;;;;;3.63;1.90;;;32.20;28.90;;;;;;10169069;28;20020;-60
2022/04/28 16:54:19;;;;;;;3.63;2.10;;;32.40;28.80;;;;;;10153167;28;20044;-60
2022/04/28 16:59:10;;;;;;;2.50;1.83;;;33.30;28.80;;;;;;10152428;28;20035;-59
2022/04/28 17:04:23;;;;;;;4.13;2.05;;;33.60;28.70;;;;;;10157039;28;20031;-60
2022/04/28 17:09:14;;;;;;;1.92;1.77;;;33.30;28.80;;;;;;10138662;28;20024;-64
2022/04/28 17:14:08;;;;;;;2.85;1.60;;;33.90;28.40;;;;;;10144808;28;20040;-65
2022/04/28 17:18:59;;;;;;;2.38;2.03;;;34.40;28.20;;;;;;10151141;28;20031;-65
2022/04/28 17:23:50;;;;;;;2.97;1.80;;;33.30;28.70;;;;;;10153412;28;20054;-64
2022/04/28 17:28:41;;;;;;;2.20;1.92;;;31.40;29.30;;;;;;10146999;28;20522;-65
2022/04/28 17:33:31;;;;;;;3.17;1.90;;;28.50;30.70;;;;;;10141191;28;20032;-64
2022/04/28 17:38:23;;;;;;;2.92;2.17;;;25.60;32.80;;;;;;10147189;28;20032;-66
2022/04/28 17:43:14;;;;;;;3.42;2.05;;;24.20;33.50;;;;;;10134818;28;20043;-63
2022/04/28 17:48:05;;;;;;;3.33;2.20;;;23.40;34.00;;;;;;10151624;28;20036;-62
2022/04/28 17:52:56;;;;;;;2.95;2.47;;;23.00;34.50;;;;;;10137971;28;20024;-64
2022/04/28 18:02:57;;;;;;;4.30;2.30;;;22.50;35.10;;;;;;10166938;28;20044;-62
2022/04/28 18:07:49;;;;;;;2.88;2.03;;;22.20;35.50;;;;;;10140287;28;20086;-62
2022/04/28 18:12:40;;;;;;;4.43;2.20;;;22.00;36.00;;;;;;10156101;28;20051;-62
2022/04/28 18:17:31;;;;;;;2.70;1.92;;;21.80;36.20;;;;;;10153131;28;20596;-64
2022/04/28 18:22:22;;;;;;;3.40;2.25;;;21.60;36.50;;;;;;10153113;28;20046;-64
2022/04/28 18:27:13;;;;;;;3.33;2.33;;;21.60;36.80;;;;;;10160278;28;20343;-66
2022/04/28 18:32:04;;;;;;;3.92;2.85;;;21.30;37.40;;;;;;10154979;28;20035;-63
2022/04/28 18:47:14;;;;;;;3.70;2.42;;;21.00;37.90;;;;;;10146928;28;20047;-64
2022/04/28 18:52:07;;;;;;;4.63;3.08;;;21.00;38.20;;;;;;10164492;28;20059;-64
2022/04/28 18:57:01;;;;;;;3.72;2.40;;;20.90;38.50;;;;;;10153113;28;20035;-66
2022/04/28 19:01:51;;;;;;;4.90;3.03;;;20.90;38.60;;;;;;10155351;28;20040;-63
2022/04/28 19:06:42;;;;;;;6.88;3.00;;;20.70;38.90;;;;;;10151962;28;20017;-62
2022/04/28 19:11:34;;;;;;;3.75;2.60;;;20.60;39.10;;;;;;10140605;28;20029;-63
2022/04/28 19:16:25;;;;;;;4.15;2.60;;;20.50;39.40;;;;;;10148804;28;20306;-64
2022/04/28 19:21:16;;;;;;;5.15;3.20;;;20.40;39.60;;;;;;10148224;28;20108;-63
2022/04/28 19:26:08;;;;;;;3.83;3.00;;;20.30;39.80;;;;;;10161677;28;20049;-63
2022/04/28 19:30:59;;;;;;;2.97;2.53;;;20.20;40.20;;;;;;10151228;28;20082;-65
2022/04/28 19:35:49;;;;;;;6.93;2.60;;;20.00;40.50;;;;;;10151323;28;20082;-62
2022/04/28 19:40:40;;;;;;;2.53;1.90;;;19.90;40.70;;;;;;10152400;28;20035;-64
2022/04/28 19:45:31;;;;;;;5.13;2.67;;;19.90;40.90;;;;;;10150392;28;20248;-64
2022/04/28 19:50:22;;;;;;;5.35;2.97;;;19.70;41.30;;;;;;10153522;28;20555;-64
2022/04/28 19:55:13;;;;;;;3.92;2.45;;;19.70;41.90;;;;;;10152977;28;20520;-66
2022/04/28 20:00:05;;;;;;;3.30;2.30;;;19.70;41.30;;;;;;10158920;28;20035;-63
2022/04/28 20:04:56;;;;;;;6.18;2.20;;;19.50;41.70;;;;;;10151492;28;20047;-66
2022/04/28 20:09:49;;;;;;;6.22;2.78;;;19.40;41.80;;;;;;10161150;28;20103;-66
2022/04/28 20:14:39;;;;;;;5.50;2.40;;;19.40;41.90;;;;;;10159403;28;20032;-65
2022/04/28 20:19:30;;;;;;;4.90;2.75;;;19.30;42.50;;;;;;10165302;28;20661;-64
2022/04/28 20:24:22;;;;;;;12.70;4.72;;;19.30;42.20;;;;;;10155672;28;20094;-62
2022/04/28 20:29:14;;;;;;;2.92;2.22;;;19.20;42.20;;;;;;10158866;28;20036;-64
2022/04/28 20:34:05;;;;;;;3.88;2.50;;;19.10;42.40;;;;;;10151239;28;20032;-62
2022/04/28 20:38:56;;;;;;;2.85;2.45;;;19.10;42.60;;;;;;10151080;28;20024;-64
2022/04/28 20:43:48;;;;;;;4.80;2.70;;;19.00;42.90;;;;;;10160378;28;20040;-63
2022/04/28 20:48:39;;;;;;;5.00;2.75;;;19.00;42.90;;;;;;10153558;28;20056;-63
2022/04/28 20:53:30;;;;;;;4.15;2.70;;;18.90;43.10;;;;;;10161361;28;20029;-62
2022/04/28 20:58:21;;;;;;;3.13;2.35;;;18.80;43.20;;;;;;10151942;28;20028;-64
2022/04/28 21:03:12;;;;;;;4.15;2.38;;;18.70;43.40;;;;;;10158197;28;20036;-64
2022/04/28 21:08:04;;;;;;;6.10;2.47;;;18.60;43.60;;;;;;10172072;28;20036;-61
2022/04/28 21:12:54;;;;;;;3.13;2.13;;;18.40;43.80;;;;;;10158828;28;20039;-63
2022/04/28 21:17:46;;;;;;;3.78;2.15;;;18.40;43.80;;;;;;10156076;28;20020;-63
2022/04/28 21:22:37;;;;;;;5.63;2.90;;;18.30;44.10;;;;;;10135346;28;20286;-64
2022/04/28 21:27:28;;;;;;;3.47;2.70;;;18.30;44.20;;;;;;10156700;28;20048;-62
2022/04/28 21:32:19;;;;;;;11.23;6.15;;;18.20;44.20;;;;;;10153866;28;20078;-63
2022/04/28 21:37:10;;;;;;;3.03;2.30;;;18.20;44.40;;;;;;10150200;28;20036;-62
2022/04/28 21:42:01;;;;;;;5.10;2.60;;;18.20;44.50;;;;;;10133459;28;20074;-62
2022/04/28 21:46:52;;;;;;;5.38;3.53;;;18.10;44.50;;;;;;10148707;28;20538;-63
2022/04/28 21:51:44;;;;;;;3.25;2.25;;;18.10;44.70;;;;;;10147771;28;20029;-63
2022/04/28 21:56:35;;;;;;;5.07;3.13;;;17.90;44.90;;;;;;10147931;28;20537;-62
2022/04/28 22:01:25;;;;;;;2.78;2.22;;;17.80;45.20;;;;;;10147405;28;20056;-64
2022/04/28 22:11:25;;;;;;;4.35;2.45;;;17.70;45.40;;;;;;10158546;28;20055;-62
2022/04/28 22:16:17;;;;;;;2.58;2.13;;;17.70;45.40;;;;;;10149567;28;20520;-64
2022/04/28 22:21:07;;;;;;;4.13;2.78;;;17.60;45.70;;;;;;10165524;28;20421;-62
2022/04/28 22:25:58;;;;;;;5.70;3.47;;;17.50;46.00;;;;;;10161654;28;20048;-63
2022/04/28 22:30:49;;;;;;;4.07;3.38;;;17.40;46.20;;;;;;10152702;28;20032;-65
2022/04/28 22:35:41;;;;;;;4.10;2.65;;;17.50;46.40;;;;;;10165029;28;20386;-65
2022/04/28 22:40:32;;;;;;;3.20;2.63;;;17.40;46.80;;;;;;10153638;28;20515;-64
2022/04/28 22:45:23;;;;;;;4.93;3.35;;;17.30;47.30;;;;;;10145073;28;20141;-63
2022/04/28 22:50:14;;;;;;;4.60;2.70;;;17.30;47.40;;;;;;10157279;28;20389;-64
2022/04/28 22:55:08;;;;;;;2.92;2.13;;;17.10;47.80;;;;;;10152702;28;20153;-63
2022/04/28 22:59:59;;;;;;;3.92;2.28;;;17.10;48.20;;;;;;10157939;28;20024;-64
2022/04/28 23:04:50;;;;;;;2.80;2.58;;;17.10;48.40;;;;;;10161365;28;20127;-63
2022/04/28 23:09:41;;;;;;;3.15;2.45;;;17.10;48.50;;;;;;10156661;28;20031;-69
2022/04/28 23:14:32;;;;;;;4.20;2.40;;;17.10;48.60;;;;;;10142945;28;20619;-63
2022/04/28 23:19:22;;;;;;;4.07;2.50;;;16.90;48.70;;;;;;10152534;28;20027;-62
2022/04/28 23:24:13;;;;;;;4.30;2.25;;;16.80;48.90;;;;;;10163553;28;20438;-63
2022/04/28 23:29:04;;;;;;;4.40;2.45;;;16.80;49.10;;;;;;10154918;28;20470;-62
2022/04/28 23:38:21;;;;;;;4.78;2.85;;;16.60;49.40;;;;;;10155725;28;20082;-63
2022/04/28 23:39:05;;;;;;;4.28;2.83;;;16.70;49.50;;;;;;10147884;28;20558;-64
2022/04/28 23:43:56;;;;;;;4.70;2.90;;;16.60;49.50;;;;;;10153053;28;20562;-63
2022/04/28 23:48:47;;;;;;;3.55;2.65;;;16.50;49.60;;;;;;10151939;28;20125;-62
2022/04/28 23:58:47;;;;;;;4.22;2.45;;;16.40;50.00;;;;;;10158057;28;20039;-62
